Time;durP1;ratioP1;P1;durP2;ratioP2;P2;SDS_P1;SDS_P2;PMS_P1;PMS_P2;Temp;Humidity;BMP_temperature;BMP_pressure;BME280_temperature;BME280_humidity;BME280_pressure;Samples;Min_cycle;Max_cycle;Signal;HPM_P1;HPM_P2
2023/12/25 00:02:25;;;;;;;34.78;5.90;;;12.90;99.90;;;;;;4998647;28;39053;-76
2023/12/25 00:04:51;;;;;;;42.92;7.03;;;12.90;99.90;;;;;;5007490;28;39905;-76
2023/12/25 00:07:18;;;;;;;42.30;7.30;;;12.90;99.90;;;;;;5006984;28;39042;-77
2023/12/25 00:09:44;;;;;;;36.00;6.18;;;12.90;99.90;;;;;;5000698;28;36953;-77
2023/12/25 00:12:10;;;;;;;32.67;5.95;;;12.90;99.90;;;;;;5001149;28;40550;-77
2023/12/25 00:14:36;;;;;;;32.53;6.10;;;12.80;99.90;;;;;;5004059;28;38867;-77
2023/12/25 00:17:02;;;;;;;40.58;6.70;;;12.90;99.90;;;;;;5005681;28;39897;-76
2023/12/25 00:19:29;;;;;;;50.88;8.25;;;12.80;99.90;;;;;;5005684;28;36924;-76
2023/12/25 00:21:58;;;;;;;36.25;5.85;;;12.80;99.90;;;;;;4983359;28;38652;-76
2023/12/25 00:24:24;;;;;;;38.13;6.88;;;12.80;99.90;;;;;;4989718;28;37162;-76
2023/12/25 00:26:50;;;;;;;39.90;6.43;;;12.80;99.90;;;;;;4995968;28;39362;-76
2023/12/25 00:29:16;;;;;;;43.95;7.03;;;12.80;99.90;;;;;;4996797;28;38520;-76
2023/12/25 00:31:43;;;;;;;41.38;6.35;;;12.80;99.90;;;;;;5001151;28;38947;-76
2023/12/25 00:34:09;;;;;;;37.83;8.13;;;12.80;99.90;;;;;;4998065;28;38056;-77
2023/12/25 00:36:36;;;;;;;47.15;6.78;;;12.80;99.90;;;;;;5009866;28;36831;-76
2023/12/25 00:39:02;;;;;;;50.40;6.40;;;12.80;99.90;;;;;;4999029;28;36498;-77
2023/12/25 00:41:30;;;;;;;39.67;6.15;;;12.80;99.90;;;;;;4995509;28;40460;-76
2023/12/25 00:44:00;;;;;;;40.00;5.75;;;12.80;99.90;;;;;;4960499;28;1294482;-76
2023/12/25 00:46:26;;;;;;;39.50;6.47;;;12.80;99.90;;;;;;4997701;28;38959;-77
2023/12/25 00:48:53;;;;;;;38.35;5.70;;;12.80;99.90;;;;;;5001926;28;37216;-77
2023/12/25 00:51:19;;;;;;;44.90;6.55;;;12.80;99.90;;;;;;5002340;28;40161;-77
2023/12/25 00:53:45;;;;;;;35.03;6.28;;;12.80;99.90;;;;;;4999872;28;39516;-77
2023/12/25 00:56:11;;;;;;;35.50;6.55;;;12.80;99.90;;;;;;4998590;28;35779;-77
2023/12/25 00:58:37;;;;;;;42.67;5.70;;;12.80;99.90;;;;;;5007952;28;36069;-77
2023/12/25 01:01:03;;;;;;;47.05;6.15;;;12.80;99.90;;;;;;5005096;28;39057;-77
2023/12/25 01:03:29;;;;;;;43.50;6.50;;;12.80;99.90;;;;;;5005322;28;38361;-77
2023/12/25 01:05:56;;;;;;;43.25;7.40;;;12.70;99.90;;;;;;5003525;28;38895;-77
2023/12/25 01:08:22;;;;;;;37.83;6.10;;;12.80;99.90;;;;;;5010437;28;37427;-77
2023/12/25 01:10:48;;;;;;;44.08;6.90;;;12.80;99.90;;;;;;5008493;28;38391;-77
2023/12/25 01:13:14;;;;;;;45.25;6.05;;;12.80;99.90;;;;;;5004286;28;39155;-76
2023/12/25 01:15:40;;;;;;;42.15;6.60;;;12.80;99.90;;;;;;5003114;28;39326;-77
2023/12/25 01:18:07;;;;;;;38.28;5.78;;;12.70;99.90;;;;;;5002264;28;38004;-77
2023/12/25 01:20:33;;;;;;;34.45;6.43;;;12.80;99.90;;;;;;5005198;28;39646;-77
2023/12/25 01:22:59;;;;;;;42.92;5.97;;;12.80;99.90;;;;;;5009361;28;38347;-77
2023/12/25 01:25:25;;;;;;;36.00;7.00;;;12.80;99.90;;;;;;5000786;28;37464;-77
2023/12/25 01:27:51;;;;;;;34.70;5.70;;;12.80;99.90;;;;;;5004807;28;37678;-77
2023/12/25 01:30:18;;;;;;;30.88;5.15;;;12.80;99.90;;;;;;4995787;28;39279;-77
2023/12/25 01:32:45;;;;;;;46.60;6.68;;;12.80;99.90;;;;;;4993432;28;37010;-76
2023/12/25 01:35:11;;;;;;;27.58;5.47;;;12.80;99.90;;;;;;4994447;28;38551;-76
2023/12/25 01:37:37;;;;;;;35.03;5.68;;;12.80;99.90;;;;;;4996322;28;36828;-76
2023/12/25 01:40:04;;;;;;;32.92;5.53;;;12.80;99.90;;;;;;5004504;28;38082;-77
2023/12/25 01:42:30;;;;;;;37.65;4.82;;;12.80;99.90;;;;;;5003605;28;39156;-77
2023/12/25 01:44:56;;;;;;;36.67;5.57;;;12.80;99.90;;;;;;5003737;28;37678;-77
2023/12/25 01:47:22;;;;;;;50.58;7.20;;;12.80;99.90;;;;;;5003719;28;38872;-77
2023/12/25 01:49:49;;;;;;;29.25;5.10;;;12.80;99.90;;;;;;5006566;28;39864;-77
2023/12/25 01:52:17;;;;;;;42.67;6.60;;;12.80;99.90;;;;;;4998162;28;39127;-76
2023/12/25 01:54:44;;;;;;;35.80;5.18;;;12.80;99.90;;;;;;5003827;28;38567;-77
2023/12/25 01:57:11;;;;;;;34.92;6.10;;;12.80;99.90;;;;;;4998458;28;37443;-76
2023/12/25 01:59:37;;;;;;;34.20;5.43;;;12.80;99.90;;;;;;5008370;28;40600;-76
2023/12/25 02:05:17;;;;;;;35.20;5.57;;;12.80;99.90;;;;;;4632545;26;20046;-80
2023/12/25 02:08:13;;;;;;;39.83;6.50;;;12.80;99.90;;;;;;5016947;28;38703;-81
2023/12/25 02:10:57;;;;;;;31.85;5.10;;;12.80;99.90;;;;;;5000424;28;50081;-80
2023/12/25 02:13:24;;;;;;;33.30;5.47;;;12.80;99.90;;;;;;5029628;23;38599;-81
2023/12/25 02:15:50;;;;;;;33.38;5.15;;;12.70;99.90;;;;;;5003757;28;36409;-80
2023/12/25 02:18:17;;;;;;;30.92;4.97;;;12.70;99.90;;;;;;5002912;28;36246;-80
2023/12/25 02:20:43;;;;;;;37.88;6.25;;;12.70;99.90;;;;;;5009251;28;39916;-80
2023/12/25 02:23:13;;;;;;;42.75;6.75;;;12.80;99.90;;;;;;5006394;28;38881;-80
2023/12/25 02:26:06;;;;;;;42.95;6.25;;;12.70;99.90;;;;;;5007539;28;38213;-79
2023/12/25 02:28:33;;;;;;;44.10;6.55;;;12.70;99.90;;;;;;4997017;28;50317;-80
2023/12/25 02:30:59;;;;;;;32.28;5.50;;;12.70;99.90;;;;;;4999431;28;37594;-79
2023/12/25 02:33:26;;;;;;;36.53;5.18;;;12.70;99.90;;;;;;5005942;28;39801;-80
2023/12/25 02:35:52;;;;;;;32.45;4.78;;;12.70;99.90;;;;;;5005277;28;36949;-80
2023/12/25 02:38:19;;;;;;;30.23;5.05;;;12.60;99.90;;;;;;5003735;28;37540;-79
2023/12/25 02:40:45;;;;;;;33.00;4.57;;;12.60;99.90;;;;;;5008215;28;38601;-80
2023/12/25 02:43:12;;;;;;;31.52;5.47;;;12.60;99.90;;;;;;5003803;28;37572;-80
2023/12/25 02:45:38;;;;;;;34.03;5.18;;;12.60;99.90;;;;;;5001815;28;36637;-80
2023/12/25 02:48:04;;;;;;;39.97;6.15;;;12.70;99.90;;;;;;4996091;28;38101;-80
2023/12/25 02:50:31;;;;;;;41.53;5.65;;;12.70;99.90;;;;;;5007494;28;37969;-80
2023/12/25 02:52:58;;;;;;;30.67;5.13;;;12.70;99.90;;;;;;5009379;28;38527;-80
2023/12/25 02:55:25;;;;;;;36.97;5.88;;;12.70;99.90;;;;;;5008750;28;37953;-80
2023/12/25 02:57:51;;;;;;;37.90;5.35;;;12.70;99.90;;;;;;5001241;28;37632;-80
2023/12/25 03:00:17;;;;;;;33.28;5.03;;;12.70;99.90;;;;;;5006575;28;39215;-80
2023/12/25 03:02:43;;;;;;;35.42;5.50;;;12.70;99.90;;;;;;5007118;28;37048;-80
2023/12/25 03:05:10;;;;;;;31.65;5.93;;;12.70;99.90;;;;;;4996074;28;36734;-80
2023/12/25 03:07:36;;;;;;;40.92;5.72;;;12.80;99.90;;;;;;5010910;28;37410;-81
2023/12/25 03:10:02;;;;;;;31.20;5.75;;;12.80;99.90;;;;;;5013738;28;37619;-80
2023/12/25 03:12:28;;;;;;;35.63;5.82;;;12.80;99.90;;;;;;5012376;28;39205;-80
2023/12/25 03:14:55;;;;;;;24.45;4.68;;;12.80;99.90;;;;;;5017928;28;37213;-80
2023/12/25 03:17:22;;;;;;;39.83;5.70;;;12.80;99.90;;;;;;5008062;28;37259;-80
2023/12/25 03:19:48;;;;;;;31.70;4.68;;;12.80;99.90;;;;;;5000397;28;39420;-80
2023/12/25 03:22:14;;;;;;;27.48;5.45;;;12.90;99.90;;;;;;5003338;28;39406;-80
2023/12/25 03:24:40;;;;;;;29.83;4.45;;;12.90;99.90;;;;;;5006723;28;36663;-79
2023/12/25 03:27:06;;;;;;;41.22;5.72;;;12.80;99.90;;;;;;5005801;28;37441;-80
2023/12/25 03:29:32;;;;;;;33.55;5.30;;;12.80;99.90;;;;;;4999173;28;41440;-80
2023/12/25 03:31:59;;;;;;;37.28;5.25;;;12.80;99.90;;;;;;5009193;28;38868;-80
2023/12/25 03:34:25;;;;;;;39.95;5.78;;;12.80;99.90;;;;;;5008129;28;37943;-80
2023/12/25 03:36:51;;;;;;;34.58;5.35;;;12.80;99.90;;;;;;5007978;28;38202;-80
2023/12/25 03:39:17;;;;;;;32.40;5.85;;;12.80;99.90;;;;;;5018842;28;37490;-79
2023/12/25 03:41:43;;;;;;;34.17;5.75;;;12.80;99.90;;;;;;5009342;28;37434;-80
2023/12/25 03:44:09;;;;;;;31.13;5.30;;;12.80;99.90;;;;;;5007640;28;36983;-80
2023/12/25 03:46:35;;;;;;;30.88;4.45;;;12.80;99.90;;;;;;5007812;28;37576;-80
2023/12/25 03:49:02;;;;;;;31.83;5.20;;;12.80;99.90;;;;;;5008454;28;38196;-80
2023/12/25 03:51:28;;;;;;;24.48;4.22;;;12.80;99.90;;;;;;5009279;28;38547;-80
2023/12/25 03:53:54;;;;;;;36.88;7.07;;;12.80;99.90;;;;;;5006648;28;39118;-80
2023/12/25 03:56:24;;;;;;;30.33;4.68;;;12.80;99.90;;;;;;5007557;28;37297;-80
2023/12/25 03:58:50;;;;;;;25.70;4.53;;;12.70;99.90;;;;;;4999954;28;38024;-80
2023/12/25 04:01:17;;;;;;;32.45;4.75;;;12.70;99.90;;;;;;5003819;28;37459;-80
2023/12/25 04:03:43;;;;;;;22.23;4.30;;;12.70;99.90;;;;;;5010249;28;38985;-80
2023/12/25 04:06:09;;;;;;;34.65;5.40;;;12.70;99.90;;;;;;5006462;28;38066;-80
2023/12/25 04:08:35;;;;;;;37.08;4.35;;;12.70;99.90;;;;;;5008098;28;39103;-81
2023/12/25 04:11:01;;;;;;;31.48;5.32;;;12.70;99.90;;;;;;5005546;28;38473;-80
2023/12/25 04:13:27;;;;;;;27.55;4.75;;;12.70;99.90;;;;;;4994508;28;46966;-80
2023/12/25 04:15:54;;;;;;;33.33;4.65;;;12.70;99.90;;;;;;4998666;28;36775;-79
2023/12/25 04:18:21;;;;;;;20.95;4.25;;;12.70;99.90;;;;;;4999747;28;37359;-80
2023/12/25 04:20:47;;;;;;;27.23;3.95;;;12.70;99.90;;;;;;5007047;28;38775;-80
2023/12/25 04:23:13;;;;;;;25.67;4.03;;;12.70;99.90;;;;;;5005817;28;38452;-80
2023/12/25 04:25:40;;;;;;;19.70;3.38;;;12.70;99.90;;;;;;5004698;28;38488;-80
2023/12/25 04:28:06;;;;;;;21.02;3.08;;;12.70;99.90;;;;;;5018205;28;40042;-80
2023/12/25 04:30:32;;;;;;;15.63;3.47;;;12.70;99.90;;;;;;5004989;28;38784;-80
2023/12/25 04:32:58;;;;;;;12.70;2.03;;;12.70;99.90;;;;;;5006112;28;37876;-80
2023/12/25 04:35:24;;;;;;;9.40;1.67;;;12.70;99.90;;;;;;5014104;28;36379;-80
2023/12/25 04:37:53;;;;;;;6.88;1.25;;;12.70;99.90;;;;;;5005769;28;37625;-80
2023/12/25 04:40:25;;;;;;;6.47;1.25;;;12.80;99.90;;;;;;5019693;28;39477;-81
2023/12/25 04:42:52;;;;;;;8.32;1.10;;;12.80;99.90;;;;;;5019049;28;38060;-81
2023/12/25 04:45:18;;;;;;;4.80;1.20;;;12.70;99.90;;;;;;5019165;28;38783;-81
2023/12/25 04:47:59;;;;;;;7.45;1.42;;;12.70;99.90;;;;;;5017232;28;38636;-82
2023/12/25 04:50:39;;;;;;;;;;;;;;;;;;;;;
2023/12/25 04:53:09;;;;;;;14.25;2.70;;;12.60;99.90;;;;;;5012284;28;38954;-81
2023/12/25 04:55:43;;;;;;;13.68;2.88;;;12.60;99.90;;;;;;5002151;28;40701;-81
2023/12/25 04:58:21;;;;;;;16.13;3.22;;;12.50;99.90;;;;;;5002881;28;38088;-81
2023/12/25 05:04:41;;;;;;;20.43;4.30;;;12.40;99.90;;;;;;4966448;28;50607;-82
2023/12/25 05:07:38;;;;;;;18.40;3.25;;;12.40;99.90;;;;;;5010833;28;37628;-82
2023/12/25 05:10:10;;;;;;;14.20;2.20;;;12.40;99.90;;;;;;4999435;28;39136;-80
2023/12/25 05:12:43;;;;;;;8.80;1.80;;;12.30;99.90;;;;;;4995211;28;47788;-80
2023/12/25 05:15:14;;;;;;;6.38;1.27;;;12.20;99.90;;;;;;4983247;28;37639;-82
2023/12/25 05:18:09;;;;;;;5.38;1.33;;;11.90;99.90;;;;;;4963391;28;38362;-81
2023/12/25 05:20:50;;;;;;;7.28;1.20;;;11.70;99.90;;;;;;4948598;28;50191;-81
2023/12/25 05:23:30;;;;;;;4.83;1.30;;;11.60;99.90;;;;;;4891791;28;39891;-81
2023/12/25 05:26:10;;;;;;;6.18;1.30;;;11.50;99.90;;;;;;4960628;28;39409;-82
2023/12/25 05:28:44;;;;;;;8.10;1.30;;;11.40;99.90;;;;;;4940082;28;49049;-81
2023/12/25 05:31:53;;;;;;;;;;;11.40;99.90;;;;;;4974800;28;48591;-81
2023/12/25 05:34:24;;;;;;;8.37;1.07;;;11.30;99.90;;;;;;4932048;28;39726;-81
2023/12/25 05:37:29;;;;;;;4.77;0.87;;;11.30;99.90;;;;;;4943351;28;38982;-82
2023/12/25 05:40:32;;;;;;;6.97;1.57;;;11.20;99.90;;;;;;4955559;28;49675;-82
2023/12/25 05:43:39;;;;;;;8.33;1.30;;;11.20;99.90;;;;;;4938808;28;39097;-81
2023/12/25 05:46:27;;;;;;;8.80;1.33;;;11.20;99.90;;;;;;4941392;28;40482;-81
2023/12/25 05:49:11;;;;;;;7.60;1.00;;;11.20;99.90;;;;;;4930992;28;39140;-82
2023/12/25 05:51:45;;;;;;;8.67;1.53;;;11.20;99.90;;;;;;4934584;28;37414;-80
2023/12/25 05:54:28;;;;;;;6.80;1.63;;;11.20;99.90;;;;;;4950110;28;39177;-81
2023/12/25 05:57:28;;;;;;;12.17;1.93;;;11.20;99.90;;;;;;4940102;28;40811;-80
2023/12/25 06:00:14;;;;;;;5.20;1.27;;;11.10;99.90;;;;;;4936150;28;38703;-81
2023/12/25 06:02:44;;;;;;;7.00;1.20;;;11.20;99.90;;;;;;4926654;28;38000;-81
2023/12/25 06:05:17;;;;;;;6.57;1.97;;;11.20;99.90;;;;;;4915908;28;40963;-81
2023/12/25 06:07:49;;;;;;;3.83;1.00;;;11.30;99.90;;;;;;4959103;28;38117;-82
2023/12/25 06:10:18;;;;;;;7.50;1.27;;;11.30;99.90;;;;;;4970805;28;37362;-80
2023/12/25 06:13:09;;;;;;;4.70;0.90;;;11.40;99.90;;;;;;4976372;28;36555;-81
2023/12/25 06:15:49;;;;;;;6.15;0.80;;;11.50;99.90;;;;;;4965724;28;48309;-81
2023/12/25 06:18:19;;;;;;;3.50;1.17;;;11.50;99.90;;;;;;4956161;28;38957;-81
2023/12/25 06:20:54;;;;;;;3.90;0.65;;;11.60;99.90;;;;;;4963227;28;37828;-80
2023/12/25 06:23:21;;;;;;;4.95;0.40;;;11.60;99.90;;;;;;4978671;28;37894;-81
2023/12/25 06:25:53;;;;;;;5.35;0.60;;;11.70;99.90;;;;;;4954971;28;39230;-81
2023/12/25 06:28:31;;;;;;;4.28;0.57;;;11.70;99.90;;;;;;4965772;28;48834;-81
2023/12/25 06:31:09;;;;;;;2.65;0.38;;;11.80;99.90;;;;;;4983249;28;38784;-81
2023/12/25 06:33:37;;;;;;;5.97;0.88;;;11.70;99.90;;;;;;5007397;28;48607;-80
2023/12/25 06:36:07;;;;;;;3.30;0.85;;;11.70;99.90;;;;;;5009995;28;39036;-80
2023/12/25 06:38:37;;;;;;;4.65;0.70;;;11.70;99.90;;;;;;5001055;28;50076;-81
2023/12/25 06:41:06;;;;;;;3.78;0.57;;;11.60;99.90;;;;;;4994091;28;38963;-80
2023/12/25 06:43:36;;;;;;;1.75;0.45;;;11.60;99.90;;;;;;4995488;28;36950;-82
2023/12/25 06:46:05;;;;;;;2.60;0.40;;;11.50;99.90;;;;;;5006014;28;40062;-80
2023/12/25 06:48:43;;;;;;;1.27;0.32;;;11.50;99.90;;;;;;5001733;28;40001;-80
2023/12/25 06:51:14;;;;;;;4.45;0.90;;;11.60;99.90;;;;;;5008686;28;38962;-81
2023/12/25 06:53:48;;;;;;;4.70;0.65;;;11.60;99.90;;;;;;5005638;28;38653;-80
2023/12/25 06:56:17;;;;;;;3.50;0.75;;;11.60;99.90;;;;;;5011621;28;39318;-81
2023/12/25 06:58:47;;;;;;;5.22;0.82;;;11.60;99.90;;;;;;4985612;28;39860;-81
2023/12/25 07:01:32;;;;;;;4.30;0.85;;;11.60;99.90;;;;;;5002456;28;40437;-80
2023/12/25 07:04:22;;;;;;;4.72;0.70;;;11.60;99.90;;;;;;5010159;28;38170;-81
2023/12/25 07:07:01;;;;;;;3.78;0.80;;;11.50;99.90;;;;;;5003471;28;40362;-81
2023/12/25 07:09:31;;;;;;;1.77;0.57;;;11.50;99.90;;;;;;4996550;28;49066;-81
2023/12/25 07:12:13;;;;;;;3.33;0.80;;;11.50;99.90;;;;;;5013098;28;38412;-80
2023/12/25 07:15:18;;;;;;;3.30;0.63;;;11.50;99.90;;;;;;4999338;28;49536;-82
2023/12/25 07:17:58;;;;;;;6.50;0.98;;;11.50;99.90;;;;;;4988458;28;49751;-82
2023/12/25 07:20:27;;;;;;;2.67;0.65;;;11.50;99.90;;;;;;4997118;28;40310;-81
2023/12/25 07:23:02;;;;;;;5.28;0.90;;;11.40;99.90;;;;;;5012178;28;38825;-81
2023/12/25 07:25:44;;;;;;;6.20;0.98;;;11.40;99.90;;;;;;4948821;28;50227;-81
2023/12/25 07:28:33;;;;;;;3.85;1.10;;;11.40;99.90;;;;;;5014717;28;38545;-81
2023/12/25 07:31:06;;;;;;;6.28;0.95;;;11.40;99.90;;;;;;5008386;28;39175;-81
2023/12/25 07:33:43;;;;;;;4.78;1.17;;;11.30;99.90;;;;;;5008719;28;39657;-80
2023/12/25 07:36:19;;;;;;;5.75;0.77;;;11.30;99.90;;;;;;4998223;28;36566;-82
2023/12/25 07:38:55;;;;;;;6.60;0.60;;;11.40;99.90;;;;;;5014376;28;40261;-80
2023/12/25 07:41:30;;;;;;;4.47;0.60;;;11.40;99.90;;;;;;5000835;28;39970;-82
2023/12/25 07:44:02;;;;;;;3.13;0.70;;;11.40;99.90;;;;;;5000815;28;39281;-80
2023/12/25 07:46:41;;;;;;;;;;;11.40;99.90;;;;;;5025029;28;50107;-81
2023/12/25 07:49:24;;;;;;;4.85;0.80;;;11.40;99.90;;;;;;4994100;28;40466;-81
2023/12/25 07:52:20;;;;;;;2.85;0.65;;;11.40;99.90;;;;;;4976267;28;38522;-81
2023/12/25 07:55:05;;;;;;;4.53;0.75;;;11.40;99.90;;;;;;4988280;28;50260;-81
2023/12/25 07:57:47;;;;;;;5.35;0.90;;;11.40;99.90;;;;;;4992611;28;49299;-80
2023/12/25 08:00:39;;;;;;;5.40;0.68;;;11.40;99.90;;;;;;4989341;28;39278;-80
2023/12/25 08:06:15;;;;;;;3.65;0.68;;;11.50;99.90;;;;;;5242038;23;20041;-82
2023/12/25 08:08:42;;;;;;;5.40;0.65;;;11.50;99.90;;;;;;5084136;22;50016;-81
2023/12/25 08:16:29;;;;;;;2.78;0.70;;;11.50;99.90;;;;;;5892093;22;20042;-82
2023/12/25 08:19:10;;;;;;;8.57;1.25;;;11.50;99.90;;;;;;5013425;28;37702;-81
2023/12/25 08:21:37;;;;;;;2.00;0.75;;;11.50;99.90;;;;;;5014448;28;48423;-81
2023/12/25 08:26:39;;;;;;;4.53;0.85;;;11.50;99.90;;;;;;5605583;23;20038;-82
2023/12/25 08:29:05;;;;;;;4.82;1.10;;;11.40;99.90;;;;;;5021753;28;37689;-81
2023/12/25 08:31:31;;;;;;;9.07;1.33;;;11.40;99.90;;;;;;5001236;28;38977;-80
2023/12/25 08:36:33;;;;;;;6.67;1.00;;;11.40;99.90;;;;;;5437225;23;20034;-81
2023/12/25 08:39:07;;;;;;;6.07;1.02;;;11.40;99.90;;;;;;5017390;28;37444;-80
2023/12/25 08:41:40;;;;;;;7.00;0.93;;;11.40;99.90;;;;;;5017730;28;47498;-80
2023/12/25 08:44:06;;;;;;;8.77;1.47;;;11.40;99.90;;;;;;5019169;28;39836;-80
2023/12/25 08:46:33;;;;;;;7.93;1.63;;;11.40;99.90;;;;;;5015578;28;38178;-80
2023/12/25 08:49:02;;;;;;;5.50;1.42;;;11.40;99.90;;;;;;5019291;28;37749;-80
2023/12/25 08:51:43;;;;;;;8.13;1.50;;;11.30;99.90;;;;;;5007780;28;48428;-82
2023/12/25 08:54:10;;;;;;;5.27;1.53;;;11.30;99.90;;;;;;5007586;28;38845;-81
2023/12/25 08:56:43;;;;;;;11.97;1.67;;;11.30;99.90;;;;;;5010800;28;37823;-81
2023/12/25 08:59:15;;;;;;;6.15;1.17;;;11.30;99.90;;;;;;5009696;28;37248;-80
2023/12/25 09:01:56;;;;;;;8.90;1.73;;;11.20;99.90;;;;;;5017249;28;39169;-81
2023/12/25 09:04:41;;;;;;;9.00;1.05;;;11.20;99.90;;;;;;5016866;28;39066;-81
2023/12/25 09:07:27;;;;;;;11.40;1.75;;;11.30;99.90;;;;;;4977069;28;39498;-79
2023/12/25 09:09:54;;;;;;;9.20;1.50;;;11.30;99.90;;;;;;4996284;28;37755;-80
2023/12/25 09:12:20;;;;;;;9.15;0.93;;;11.20;99.90;;;;;;4982040;28;39325;-80
2023/12/25 09:14:47;;;;;;;9.83;1.03;;;11.20;99.90;;;;;;4992656;28;37578;-80
2023/12/25 09:17:13;;;;;;;13.20;1.70;;;11.20;99.90;;;;;;5009157;28;38022;-81
2023/12/25 09:19:39;;;;;;;8.20;1.27;;;11.20;99.90;;;;;;5006251;28;37529;-81
2023/12/25 09:22:07;;;;;;;8.83;1.30;;;11.20;99.90;;;;;;4992958;28;38973;-80
2023/12/25 09:24:34;;;;;;;5.70;1.30;;;11.20;99.90;;;;;;4994628;28;38379;-79
2023/12/25 09:27:00;;;;;;;7.43;1.10;;;11.20;99.90;;;;;;4992608;28;37842;-80
2023/12/25 09:29:27;;;;;;;8.90;1.97;;;11.30;99.90;;;;;;4997932;28;36405;-79
2023/12/25 09:31:53;;;;;;;6.80;1.38;;;11.30;99.90;;;;;;4995588;28;38029;-80
2023/12/25 09:34:19;;;;;;;6.40;1.00;;;11.30;99.90;;;;;;5014142;28;37775;-78
2023/12/25 09:36:45;;;;;;;7.70;3.60;;;11.30;99.90;;;;;;4999406;28;38630;-78
2023/12/25 09:39:12;;;;;;;7.00;1.80;;;11.30;99.90;;;;;;5006345;28;36048;-80
2023/12/25 09:41:40;;;;;;;7.18;1.40;;;11.30;99.90;;;;;;5005559;28;39323;-79
2023/12/25 09:44:06;;;;;;;7.17;1.90;;;11.30;99.90;;;;;;5002464;28;38569;-78
2023/12/25 09:46:33;;;;;;;6.33;1.50;;;11.30;99.90;;;;;;5001579;28;38097;-79
2023/12/25 09:49:00;;;;;;;5.00;1.40;;;11.30;99.90;;;;;;4996783;28;37054;-80
2023/12/25 09:51:32;;;;;;;7.83;2.13;;;11.30;99.90;;;;;;4993505;28;37543;-79
2023/12/25 09:53:59;;;;;;;;;;;11.30;99.90;;;;;;4991882;28;37895;-80
2023/12/25 09:56:27;;;;;;;7.17;1.60;;;11.30;99.90;;;;;;4997468;28;38334;-80
2023/12/25 09:58:55;;;;;;;7.50;1.20;;;11.30;99.90;;;;;;4986512;28;35820;-80
2023/12/25 10:01:23;;;;;;;6.13;1.33;;;11.30;99.90;;;;;;4987613;28;37891;-78
2023/12/25 10:03:50;;;;;;;6.60;1.10;;;11.30;99.90;;;;;;4998589;28;37836;-79
2023/12/25 10:06:18;;;;;;;5.33;0.90;;;11.40;99.90;;;;;;4977273;28;38857;-78
2023/12/25 10:08:44;;;;;;;7.47;0.97;;;11.40;99.90;;;;;;4985556;28;37612;-79
2023/12/25 10:11:14;;;;;;;7.17;1.40;;;11.40;99.90;;;;;;4988293;28;37846;-79
2023/12/25 10:13:42;;;;;;;5.23;1.10;;;11.40;99.90;;;;;;4988234;28;37551;-79
2023/12/25 10:16:08;;;;;;;6.93;1.65;;;11.40;99.90;;;;;;4986937;28;39206;-80
2023/12/25 10:18:37;;;;;;;4.20;0.80;;;11.40;99.90;;;;;;4990136;28;36979;-79
2023/12/25 10:21:04;;;;;;;7.33;1.43;;;11.40;99.90;;;;;;4987130;28;37711;-79
2023/12/25 10:23:34;;;;;;;4.50;1.00;;;11.50;99.90;;;;;;4986957;28;37740;-79
2023/12/25 10:26:03;;;;;;;4.77;1.10;;;11.50;99.90;;;;;;4986861;28;37926;-79
2023/12/25 10:28:32;;;;;;;8.38;1.08;;;11.40;99.90;;;;;;4997157;28;47279;-80
2023/12/25 10:30:59;;;;;;;6.90;1.95;;;11.50;99.90;;;;;;4989412;28;37956;-79
2023/12/25 10:33:26;;;;;;;4.32;1.10;;;11.50;99.90;;;;;;4979613;28;39297;-78
2023/12/25 10:36:05;;;;;;;2.95;0.82;;;11.50;99.90;;;;;;4983445;28;38002;-79
2023/12/25 10:38:36;;;;;;;7.82;1.15;;;11.50;99.90;;;;;;4987779;28;48727;-78
2023/12/25 10:41:27;;;;;;;6.30;0.95;;;11.50;99.90;;;;;;4985334;28;39239;-79
2023/12/25 10:44:00;;;;;;;8.93;1.00;;;11.40;99.90;;;;;;4987390;28;38910;-79
2023/12/25 10:46:35;;;;;;;6.87;1.10;;;11.50;99.90;;;;;;4987428;28;38143;-79
2023/12/25 10:49:05;;;;;;;8.07;1.30;;;11.50;99.90;;;;;;4988679;28;35972;-78
2023/12/25 10:51:34;;;;;;;5.50;1.15;;;11.50;99.90;;;;;;4988143;28;46641;-79
2023/12/25 10:54:03;;;;;;;3.15;0.95;;;11.60;99.90;;;;;;5002796;28;37337;-78
2023/12/25 10:56:32;;;;;;;4.30;0.63;;;11.70;99.90;;;;;;4984447;28;48264;-79
2023/12/25 10:59:13;;;;;;;3.72;0.82;;;11.70;99.90;;;;;;4992942;28;36199;-79
2023/12/25 11:01:46;;;;;;;4.72;1.05;;;11.70;99.90;;;;;;4986535;28;48319;-79
2023/12/25 11:04:20;;;;;;;;;;;11.80;99.90;;;;;;4992716;28;38039;-81
2023/12/25 11:06:52;;;;;;;7.00;1.92;;;11.90;99.90;;;;;;5011109;28;37828;-80
2023/12/25 11:09:37;;;;;;;7.97;1.65;;;11.90;99.90;;;;;;5009697;28;38859;-80
2023/12/25 11:12:04;;;;;;;4.38;1.63;;;12.00;99.90;;;;;;5009598;28;38736;-81
2023/12/25 11:14:31;;;;;;;3.78;1.20;;;12.00;99.90;;;;;;5011651;28;38596;-80
2023/12/25 11:16:57;;;;;;;10.13;2.05;;;12.00;99.90;;;;;;5012900;28;39610;-81
2023/12/25 11:19:24;;;;;;;7.57;1.80;;;12.00;99.90;;;;;;5012775;28;37394;-80
2023/12/25 11:22:28;;;;;;;6.25;1.10;;;12.10;99.90;;;;;;5016015;28;40324;-81
2023/12/25 11:25:00;;;;;;;7.18;1.25;;;12.10;99.90;;;;;;5014655;28;47583;-81
2023/12/25 11:27:26;;;;;;;4.40;0.80;;;12.20;99.90;;;;;;5008569;28;38348;-80
2023/12/25 11:30:08;;;;;;;5.18;1.42;;;12.20;99.90;;;;;;5027207;28;37447;-81
2023/12/25 11:32:40;;;;;;;5.28;1.00;;;12.20;99.90;;;;;;5014048;28;47866;-80
2023/12/25 11:35:08;;;;;;;7.28;0.70;;;12.20;99.90;;;;;;5013453;28;38381;-80
2023/12/25 11:37:35;;;;;;;4.28;1.10;;;12.30;99.90;;;;;;4999665;28;38173;-80
2023/12/25 11:40:05;;;;;;;7.55;1.20;;;12.30;99.90;;;;;;5018974;28;37513;-80
2023/12/25 11:42:32;;;;;;;5.93;1.35;;;12.30;99.90;;;;;;5003568;28;50026;-81
2023/12/25 11:45:09;;;;;;;3.25;0.88;;;12.30;99.90;;;;;;5008194;28;37776;-80
2023/12/25 11:47:44;;;;;;;7.20;1.48;;;12.30;99.90;;;;;;5004105;28;48086;-80
2023/12/25 11:50:19;;;;;;;5.45;1.02;;;12.30;99.90;;;;;;5009866;28;38599;-80
2023/12/25 11:52:56;;;;;;;5.80;0.80;;;12.30;99.90;;;;;;5011368;28;39036;-80
2023/12/25 11:55:25;;;;;;;7.20;1.35;;;12.30;99.90;;;;;;5015994;28;37558;-81
2023/12/25 11:57:58;;;;;;;7.10;1.00;;;12.30;99.90;;;;;;5015129;28;39197;-82
2023/12/25 12:00:26;;;;;;;7.72;1.13;;;12.30;99.90;;;;;;5005289;28;37685;-80
2023/12/25 12:02:53;;;;;;;7.28;1.20;;;12.30;99.90;;;;;;5006925;28;39509;-80
2023/12/25 12:05:19;;;;;;;6.75;1.75;;;12.30;99.90;;;;;;4996553;28;37143;-81
2023/12/25 12:07:46;;;;;;;4.63;0.90;;;12.40;99.90;;;;;;5008099;28;38903;-81
2023/12/25 12:10:14;;;;;;;8.90;2.90;;;12.40;99.90;;;;;;5001594;28;37352;-82
2023/12/25 12:12:45;;;;;;;7.10;1.55;;;12.60;99.90;;;;;;5000999;28;39011;-81
2023/12/25 12:15:22;;;;;;;;;;;;;;;;;;;;;
2023/12/25 12:17:53;;;;;;;7.82;1.58;;;12.60;99.90;;;;;;5016872;28;39082;-81
2023/12/25 12:20:20;;;;;;;8.23;1.40;;;12.70;99.90;;;;;;5002946;28;36864;-81
2023/12/25 12:22:58;;;;;;;5.28;1.75;;;12.70;99.90;;;;;;4979587;28;38935;-82
2023/12/25 12:25:33;;;;;;;6.65;1.25;;;12.70;99.90;;;;;;5000876;28;39036;-82
2023/12/25 12:28:02;;;;;;;6.72;1.42;;;12.70;99.90;;;;;;5008265;28;37968;-81
2023/12/25 12:30:32;;;;;;;8.38;1.23;;;12.70;99.90;;;;;;5004008;28;47932;-80
2023/12/25 12:33:04;;;;;;;5.88;0.90;;;12.60;99.90;;;;;;5012897;28;39460;-81
2023/12/25 12:35:45;;;;;;;7.00;1.15;;;12.60;99.90;;;;;;4969265;28;48098;-81
2023/12/25 12:38:14;;;;;;;3.78;0.85;;;12.50;99.90;;;;;;5003591;28;37068;-81
2023/12/25 12:40:52;;;;;;;8.93;1.60;;;12.40;99.90;;;;;;4995902;28;36101;-79
2023/12/25 12:43:23;;;;;;;7.40;1.20;;;12.50;99.90;;;;;;4996341;28;39309;-81
2023/12/25 12:45:55;;;;;;;4.50;1.10;;;12.50;99.90;;;;;;5006940;28;38441;-80
2023/12/25 12:48:25;;;;;;;4.72;0.90;;;12.50;99.90;;;;;;4994167;28;38433;-80
2023/12/25 12:51:03;;;;;;;3.42;0.95;;;12.50;99.90;;;;;;5013863;28;37874;-80
2023/12/25 12:53:30;;;;;;;5.57;1.05;;;12.40;99.90;;;;;;4999652;28;49036;-80
2023/12/25 12:55:56;;;;;;;5.47;1.10;;;12.40;99.90;;;;;;5002849;28;37583;-80
2023/12/25 12:58:22;;;;;;;7.35;1.52;;;12.40;99.90;;;;;;5001834;28;38437;-79
2023/12/25 13:00:49;;;;;;;2.70;0.70;;;12.40;99.90;;;;;;4994527;28;36030;-80
2023/12/25 13:03:16;;;;;;;3.78;0.85;;;12.40;99.90;;;;;;4980867;28;39884;-79
2023/12/25 13:05:42;;;;;;;3.20;0.50;;;12.40;99.90;;;;;;4989570;28;40898;-79
2023/12/25 13:08:15;;;;;;;5.32;1.23;;;12.30;99.90;;;;;;4991462;28;38580;-80
2023/12/25 13:10:56;;;;;;;6.50;1.25;;;12.30;99.90;;;;;;5013600;28;37782;-79
2023/12/25 13:13:44;;;;;;;5.30;1.85;;;12.30;99.90;;;;;;4987564;28;38814;-82
2023/12/25 13:20:02;;;;;;;6.72;1.38;;;12.30;99.90;;;;;;4931182;28;49590;-82
2023/12/25 13:26:13;;;;;;;1.98;0.63;;;12.30;99.90;;;;;;4989474;22;49403;-81
2023/12/25 13:28:42;;;;;;;4.05;0.82;;;12.30;99.90;;;;;;4994102;28;39122;-81
2023/12/25 13:31:26;;;;;;;3.95;1.02;;;12.30;99.90;;;;;;5011903;28;39244;-79
2023/12/25 13:34:00;;;;;;;5.55;0.65;;;12.30;99.90;;;;;;5004586;28;37248;-82
2023/12/25 13:37:05;;;;;;;3.58;1.00;;;12.30;99.90;;;;;;5004458;28;38678;-81